Time;durP1;ratioP1;P1;durP2;ratioP2;P2;SDS_P1;SDS_P2;PMS_P1;PMS_P2;Temp;Humidity;BMP_temperature;BMP_pressure;BME280_temperature;BME280_humidity;BME280_pressure;Samples;Min_cycle;Max_cycle;Signal;HPM_P1;HPM_P2
2022/07/30 00:01:38;;;;;;;1.88;0.90;;;;;;;19.00;60.40;101063.03;5033720;28;20428;-68
2022/07/30 00:04:04;;;;;;;1.52;0.93;;;;;;;18.98;60.37;101064.03;5017035;28;20041;-68
2022/07/30 00:06:29;;;;;;;0.90;0.55;;;;;;;18.95;60.42;101063.25;5034801;28;20035;-67
2022/07/30 00:08:55;;;;;;;1.98;0.93;;;;;;;19.00;60.28;101056.84;5033380;28;20079;-67
2022/07/30 00:11:20;;;;;;;1.30;0.70;;;;;;;18.96;60.51;101066.78;5033372;28;20084;-68
2022/07/30 00:13:46;;;;;;;1.50;0.80;;;;;;;18.95;60.44;101060.59;5033336;28;20079;-67
2022/07/30 00:16:12;;;;;;;1.65;0.90;;;;;;;18.89;60.69;101063.50;5033427;28;20108;-68
2022/07/30 00:18:37;;;;;;;1.95;0.85;;;;;;;18.88;60.61;101056.47;5034692;28;20374;-68
2022/07/30 00:21:03;;;;;;;1.65;0.80;;;;;;;18.92;60.61;101050.06;5033339;28;20073;-68
2022/07/30 00:23:28;;;;;;;2.05;0.95;;;;;;;18.86;60.96;101050.34;5033058;28;20425;-67
2022/07/30 00:25:54;;;;;;;1.77;1.08;;;;;;;18.76;61.20;101049.03;5034485;28;20025;-68
2022/07/30 00:28:19;;;;;;;2.83;0.90;;;;;;;18.77;61.02;101044.56;5033191;28;20036;-68
2022/07/30 00:30:44;;;;;;;1.60;0.90;;;;;;;18.77;61.19;101044.56;5034442;28;20064;-67
2022/07/30 00:33:10;;;;;;;1.10;0.75;;;;;;;18.78;60.92;101052.47;5034451;28;20366;-67
2022/07/30 00:35:35;;;;;;;1.73;0.80;;;;;;;18.72;61.16;101055.44;4995474;28;1118505;-68
2022/07/30 00:38:01;;;;;;;2.30;1.10;;;;;;;18.68;61.37;101045.81;5034189;28;20385;-68
2022/07/30 00:40:27;;;;;;;1.95;1.08;;;;;;;18.56;61.86;101046.38;5035361;28;20025;-68
2022/07/30 00:42:52;;;;;;;2.63;1.00;;;;;;;18.49;62.00;101039.59;5035218;28;20061;-68
2022/07/30 00:45:18;;;;;;;4.10;1.20;;;;;;;18.39;62.33;101036.44;5035093;28;20030;-68
2022/07/30 00:47:43;;;;;;;2.33;1.10;;;;;;;18.13;63.32;101035.78;5035188;28;20049;-68
2022/07/30 00:50:11;;;;;;;1.60;0.90;;;;;;;18.16;63.22;101029.50;5035157;28;20026;-68
2022/07/30 00:52:37;;;;;;;2.05;1.10;;;;;;;18.15;63.13;101030.41;5034898;28;20033;-68
2022/07/30 00:55:04;;;;;;;1.52;1.13;;;;;;;18.12;63.18;101028.75;5033776;28;20104;-67
2022/07/30 00:57:30;;;;;;;1.63;1.10;;;;;;;18.04;63.74;101027.34;5035054;28;20041;-68
2022/07/30 00:59:55;;;;;;;1.75;1.20;;;;;;;18.26;63.20;101037.91;5033717;28;20099;-68
2022/07/30 01:02:21;;;;;;;2.88;1.10;;;;;;;18.24;63.04;101032.69;5017219;28;20448;-68
2022/07/30 01:04:46;;;;;;;2.28;1.17;;;;;;;18.26;63.17;101022.81;5032684;28;20033;-67
2022/07/30 01:07:12;;;;;;;1.60;1.00;;;;;;;18.24;63.08;101014.06;5034579;28;20514;-67
2022/07/30 01:09:38;;;;;;;6.03;1.17;;;;;;;18.20;63.52;101007.16;5034628;28;20098;-67
2022/07/30 01:12:08;;;;;;;2.33;1.17;;;;;;;18.25;63.00;101006.94;5033198;28;20026;-67
2022/07/30 01:14:35;;;;;;;2.63;1.20;;;;;;;18.18;63.47;101006.34;5034604;28;20496;-67
2022/07/30 01:17:01;;;;;;;2.15;1.05;;;;;;;18.18;63.41;101003.69;5034592;28;20461;-67
2022/07/30 01:19:47;;;;;;;1.63;1.00;;;;;;;18.16;63.65;101005.56;5033351;28;20038;-67
2022/07/30 01:22:25;;;;;;;1.98;0.95;;;;;;;18.15;63.54;101007.34;5034416;28;20029;-67
2022/07/30 01:25:02;;;;;;;1.77;1.00;;;;;;;18.04;64.69;101003.44;5034352;28;20033;-67
2022/07/30 01:27:31;;;;;;;1.17;0.90;;;;;;;18.07;63.72;101004.13;5034462;28;20536;-67
2022/07/30 01:30:00;;;;;;;2.80;1.20;;;;;;;18.03;64.30;100991.03;5034276;28;20372;-67
2022/07/30 01:32:27;;;;;;;2.00;1.10;;;;;;;18.06;63.89;100991.78;5032935;28;20483;-67
2022/07/30 01:34:55;;;;;;;1.85;1.10;;;;;;;18.08;63.80;100994.38;5032844;28;20029;-68
2022/07/30 01:37:22;;;;;;;1.98;1.20;;;;;;;18.02;64.04;100986.66;5032690;28;20716;-67
2022/07/30 01:39:49;;;;;;;1.52;0.90;;;;;;;17.95;64.22;100986.03;5034124;28;20025;-67
2022/07/30 01:42:20;;;;;;;2.20;1.30;;;;;;;17.97;64.35;100992.16;5034111;28;20056;-67
2022/07/30 01:44:48;;;;;;;2.30;1.10;;;;;;;17.97;64.11;100986.84;5032564;28;20060;-68
2022/07/30 01:47:16;;;;;;;2.47;1.20;;;;;;;17.91;64.36;100980.03;5033985;28;20049;-67
2022/07/30 01:49:46;;;;;;;3.70;1.30;;;;;;;17.82;64.64;100979.53;5033914;28;20503;-68
2022/07/30 01:52:13;;;;;;;2.58;1.17;;;;;;;17.87;64.09;100982.84;5034023;28;20481;-68
2022/07/30 01:54:40;;;;;;;1.77;1.10;;;;;;;17.79;64.54;100974.34;5033990;28;20025;-67
2022/07/30 01:57:07;;;;;;;2.08;1.40;;;;;;;17.80;64.46;100976.09;5034070;28;20102;-68
2022/07/30 01:59:34;;;;;;;3.80;1.30;;;;;;;17.72;65.00;100968.41;5033637;28;20033;-67
2022/07/30 02:02:02;;;;;;;3.38;1.10;;;;;;;17.73;64.81;100956.84;5033682;28;20032;-67
2022/07/30 02:04:28;;;;;;;3.55;1.40;;;;;;;17.62;65.38;100949.31;5033749;28;20041;-68
2022/07/30 02:07:01;;;;;;;3.53;1.58;;;;;;;17.51;66.22;100937.38;5033736;28;20116;-68
2022/07/30 02:09:34;;;;;;;;;;;;;;;17.42;67.38;100941.28;5034119;28;20118;-67
2022/07/30 02:14:51;;;;;;;2.63;1.65;;;;;;;17.30;66.41;100950.63;5034007;28;20027;-68
2022/07/30 02:17:22;;;;;;;2.78;1.15;;;;;;;17.39;65.71;100950.25;5033573;28;20116;-68
2022/07/30 02:19:51;;;;;;;4.90;1.30;;;;;;;17.44;65.59;100947.44;5033636;28;20044;-68
2022/07/30 02:22:19;;;;;;;2.38;1.35;;;;;;;17.47;65.27;100950.81;5033410;28;20055;-67
2022/07/30 02:24:46;;;;;;;2.92;1.35;;;;;;;17.42;65.34;100950.13;5033367;28;20033;-68
2022/07/30 02:27:15;;;;;;;1.92;1.35;;;;;;;17.45;65.37;100943.84;5033460;28;20022;-67
2022/07/30 02:29:43;;;;;;;1.73;1.30;;;;;;;17.36;65.65;100949.53;5033427;28;20040;-67
2022/07/30 02:32:11;;;;;;;3.50;1.50;;;;;;;17.34;65.77;100940.75;5033487;28;20029;-67
2022/07/30 02:34:39;;;;;;;3.70;1.40;;;;;;;17.31;65.86;100941.72;5031976;28;20033;-67
2022/07/30 02:37:07;;;;;;;2.75;1.30;;;;;;;17.31;65.82;100932.91;5032013;28;20071;-67
2022/07/30 02:39:37;;;;;;;3.88;1.60;;;;;;;17.33;65.83;100931.91;5033617;28;20095;-67
2022/07/30 02:42:08;;;;;;;10.30;1.70;;;;;;;17.36;65.77;100926.50;5032240;28;20121;-67
2022/07/30 02:44:36;;;;;;;4.78;1.40;;;;;;;17.13;66.12;100921.25;5032246;28;20029;-67
2022/07/30 02:47:03;;;;;;;2.20;1.05;;;;;;;17.06;66.83;100919.75;5033369;28;20033;-68
2022/07/30 02:49:31;;;;;;;1.63;1.20;;;;;;;17.17;66.62;100922.84;5033251;28;20025;-70
2022/07/30 02:51:57;;;;;;;2.47;1.65;;;;;;;17.06;66.78;100927.72;5033204;28;20033;-68
2022/07/30 02:54:25;;;;;;;3.63;1.73;;;;;;;16.97;67.27;100929.81;5033216;28;20051;-68
2022/07/30 02:56:52;;;;;;;4.75;1.48;;;;;;;16.94;67.29;100937.88;5031935;28;20186;-68
2022/07/30 02:59:20;;;;;;;4.15;1.42;;;;;;;16.98;67.26;100930.66;5031893;28;20029;-68
2022/07/30 03:01:47;;;;;;;2.10;0.93;;;;;;;17.30;66.15;100934.69;5033228;28;20031;-68
2022/07/30 03:04:15;;;;;;;3.40;1.60;;;;;;;17.36;65.91;100946.88;5015449;28;20156;-67
2022/07/30 03:06:42;;;;;;;3.25;1.20;;;;;;;17.40;65.77;100941.38;5031864;28;20038;-68
2022/07/30 03:09:09;;;;;;;2.92;1.10;;;;;;;17.42;65.65;100942.16;5031854;28;20045;-67
2022/07/30 03:11:35;;;;;;;4.35;1.65;;;;;;;17.41;65.59;100953.72;5033447;28;20036;-68
2022/07/30 03:14:01;;;;;;;1.65;1.10;;;;;;;17.47;65.47;100947.28;5015503;28;20033;-67
2022/07/30 03:16:28;;;;;;;2.53;1.42;;;;;;;17.49;65.44;100954.25;5032873;28;20025;-67
2022/07/30 03:18:54;;;;;;;2.88;1.50;;;;;;;17.49;65.71;100956.91;5015174;28;20036;-68
2022/07/30 03:21:24;;;;;;;3.58;1.52;;;;;;;17.51;65.52;100963.97;5032925;28;20520;-67
2022/07/30 03:23:53;;;;;;;2.60;1.35;;;;;;;17.53;65.51;100964.78;5032979;28;20030;-68
2022/07/30 03:26:21;;;;;;;2.65;1.15;;;;;;;17.63;65.22;100966.09;5033103;28;20026;-68
2022/07/30 03:28:48;;;;;;;2.00;1.15;;;;;;;17.73;64.91;100970.13;5034314;28;20029;-67
2022/07/30 03:31:17;;;;;;;2.53;1.10;;;;;;;17.74;64.85;100969.19;5036587;28;20033;-68
2022/07/30 03:33:44;;;;;;;3.58;1.10;;;;;;;17.82;64.64;100977.72;5036592;28;20022;-68
2022/07/30 03:36:12;;;;;;;2.03;1.17;;;;;;;17.85;64.55;100974.94;5034975;28;20055;-67
2022/07/30 03:38:40;;;;;;;2.47;1.63;;;;;;;17.92;64.52;100959.63;5036439;28;20022;-67
2022/07/30 03:41:07;;;;;;;2.40;1.25;;;;;;;17.91;64.59;100955.19;5036403;28;20017;-68
2022/07/30 03:43:34;;;;;;;3.38;1.50;;;;;;;17.93;64.34;100954.22;5034961;28;20063;-67
2022/07/30 03:46:02;;;;;;;2.08;1.20;;;;;;;17.91;64.45;100952.53;5034927;28;20025;-67
2022/07/30 03:48:28;;;;;;;3.22;1.42;;;;;;;17.88;64.66;100948.25;5036203;28;20466;-67
2022/07/30 03:50:54;;;;;;;3.75;1.60;;;;;;;17.91;64.52;100948.13;5036306;28;20056;-67
2022/07/30 03:53:23;;;;;;;2.70;1.35;;;;;;;17.89;64.87;100941.13;5036300;28;20022;-67
2022/07/30 03:55:50;;;;;;;1.85;1.20;;;;;;;17.86;65.12;100944.78;5002805;28;20053;-67
2022/07/30 03:58:16;;;;;;;3.08;1.40;;;;;;;17.92;64.76;100949.84;5035925;28;20024;-67
2022/07/30 04:00:47;;;;;;;2.50;1.20;;;;;;;17.91;65.10;100942.81;5034696;28;20386;-67
2022/07/30 04:03:22;;;;;;;3.75;1.35;;;;;;;18.00;64.53;100940.69;5018317;28;20033;-67
2022/07/30 04:05:47;;;;;;;4.20;1.40;;;;;;;18.06;64.26;100946.56;5034868;28;20026;-67
2022/07/30 04:08:13;;;;;;;1.92;1.00;;;;;;;18.09;64.11;100954.41;5035862;28;20037;-68
2022/07/30 04:10:38;;;;;;;1.90;1.08;;;;;;;18.15;64.04;100950.63;5036094;28;20068;-69
2022/07/30 04:13:04;;;;;;;2.38;1.17;;;;;;;18.16;64.08;100957.69;5018108;28;20025;-68
2022/07/30 04:15:33;;;;;;;2.17;1.10;;;;;;;18.31;63.85;100950.78;5035892;28;20025;-68
2022/07/30 04:18:03;;;;;;;1.10;0.80;;;;;;;18.43;63.60;100953.78;5051072;28;20076;-68
2022/07/30 04:20:33;;;;;;;3.08;1.20;;;;;;;18.53;63.13;100948.03;5035787;28;20029;-68
2022/07/30 04:23:01;;;;;;;1.98;1.17;;;;;;;18.56;63.07;100946.13;5035780;28;20060;-69
2022/07/30 04:25:28;;;;;;;1.40;1.10;;;;;;;18.69;62.61;100946.41;5035702;28;20091;-68
2022/07/30 04:27:54;;;;;;;1.75;0.90;;;;;;;18.75;62.50;100946.16;5035481;28;20025;-68
2022/07/30 04:30:19;;;;;;;3.08;1.50;;;;;;;18.77;62.62;100943.41;5034263;28;20179;-68
2022/07/30 04:32:45;;;;;;;1.73;1.30;;;;;;;18.78;62.42;100945.13;5034245;28;20021;-68
2022/07/30 04:35:10;;;;;;;2.20;0.93;;;;;;;18.77;62.47;100944.28;5034149;28;20027;-68
2022/07/30 04:37:36;;;;;;;1.33;0.85;;;;;;;18.79;62.58;100950.41;5035016;28;20053;-68
2022/07/30 04:40:01;;;;;;;1.58;0.73;;;;;;;18.88;62.18;100947.31;5034207;28;20436;-68
2022/07/30 04:42:28;;;;;;;2.70;1.10;;;;;;;18.92;62.27;100945.38;5035432;28;20037;-68
2022/07/30 04:44:54;;;;;;;2.38;1.40;;;;;;;18.93;62.25;100939.97;5035048;28;20483;-69
2022/07/30 04:47:21;;;;;;;2.17;1.20;;;;;;;19.01;61.91;100936.06;5033950;28;20034;-68
2022/07/30 04:49:47;;;;;;;1.98;1.25;;;;;;;19.14;61.54;100926.53;5035088;28;20462;-68
2022/07/30 04:52:14;;;;;;;2.25;1.30;;;;;;;19.16;61.65;100935.34;5034945;28;20034;-68
2022/07/30 04:54:50;;;;;;;2.75;1.27;;;;;;;19.36;61.19;100937.03;5035124;28;20071;-68
2022/07/30 04:57:18;;;;;;;3.33;1.27;;;;;;;19.48;60.64;100935.56;5033694;28;20034;-68
2022/07/30 04:59:44;;;;;;;2.17;1.15;;;;;;;19.53;60.67;100931.72;5033856;28;20025;-68
2022/07/30 05:02:10;;;;;;;1.58;0.95;;;;;;;19.59;60.29;100933.19;5033725;28;20385;-68
2022/07/30 05:04:37;;;;;;;2.13;1.00;;;;;;;19.71;59.94;100929.97;5033335;28;20091;-68
2022/07/30 05:07:04;;;;;;;1.65;1.00;;;;;;;19.65;60.13;100925.78;5034665;28;20021;-68
2022/07/30 05:09:30;;;;;;;1.80;1.00;;;;;;;19.71;59.88;100919.31;5034723;28;20029;-68
2022/07/30 05:11:56;;;;;;;2.22;0.80;;;;;;;19.71;59.98;100927.31;5034681;28;20041;-68
2022/07/30 05:14:24;;;;;;;2.28;0.93;;;;;;;19.69;59.62;100916.69;5034671;28;20028;-68
2022/07/30 05:16:50;;;;;;;1.65;0.70;;;;;;;19.88;59.00;100918.44;5034277;28;20026;-68
2022/07/30 05:19:19;;;;;;;1.52;0.82;;;;;;;20.00;58.84;100916.94;5034390;28;20465;-68
2022/07/30 05:21:45;;;;;;;1.42;0.85;;;;;;;20.12;58.69;100918.97;5033143;28;20037;-68
2022/07/30 05:24:10;;;;;;;2.75;0.88;;;;;;;20.26;58.31;100920.88;5034417;28;20037;-55
2022/07/30 05:26:36;;;;;;;2.67;0.82;;;;;;;20.35;58.21;100921.25;5034576;28;20087;-68
2022/07/30 05:29:02;;;;;;;2.03;0.80;;;;;;;20.48;57.96;100928.59;5034414;28;20037;-71
2022/07/30 05:31:28;;;;;;;2.15;0.80;;;;;;;20.55;57.68;100925.56;5034348;28;20072;-70
2022/07/30 05:33:53;;;;;;;2.90;0.80;;;;;;;20.73;57.40;100926.34;5034106;28;20060;-70
2022/07/30 05:36:19;;;;;;;7.72;1.05;;;;;;;20.81;57.25;100929.44;5016224;28;20080;-69
2022/07/30 05:38:45;;;;;;;1.45;0.80;;;;;;;20.99;56.98;100924.03;5032965;28;20033;-71
2022/07/30 05:41:11;;;;;;;2.50;0.70;;;;;;;21.01;56.35;100916.78;5034162;28;20026;-70
2022/07/30 05:43:36;;;;;;;2.28;0.90;;;;;;;20.87;56.32;100930.94;5034140;28;20028;-70
2022/07/30 05:46:02;;;;;;;1.65;0.75;;;;;;;20.82;56.07;100931.16;5033011;28;20034;-68
2022/07/30 05:48:27;;;;;;;6.35;1.15;;;;;;;20.89;56.02;100931.69;5034180;28;20350;-68
2022/07/30 05:50:53;;;;;;;2.80;0.77;;;;;;;20.70;56.34;100922.97;5033490;28;20096;-68
2022/07/30 05:53:19;;;;;;;1.10;0.60;;;;;;;20.77;56.32;100925.22;5032690;28;20064;-68
2022/07/30 05:55:44;;;;;;;1.02;0.50;;;;;;;20.74;56.06;100919.19;5034022;28;20450;-68
2022/07/30 05:58:10;;;;;;;2.95;0.77;;;;;;;20.79;56.11;100919.81;5032671;28;20389;-68
2022/07/30 06:00:35;;;;;;;2.17;0.70;;;;;;;20.81;56.01;100915.22;5032592;28;20029;-68
2022/07/30 06:03:01;;;;;;;1.27;0.65;;;;;;;20.92;55.55;100919.03;5016093;28;20034;-68
2022/07/30 06:05:27;;;;;;;1.10;0.70;;;;;;;21.12;55.06;100917.03;5033638;28;20034;-67
2022/07/30 06:07:53;;;;;;;3.08;0.60;;;;;;;21.26;54.67;100914.41;5033830;28;20033;-67
2022/07/30 06:10:18;;;;;;;2.22;0.90;;;;;;;21.22;54.67;100914.69;5015845;28;20078;-68
2022/07/30 06:12:44;;;;;;;1.23;0.77;;;;;;;21.33;54.46;100915.81;5033746;28;20034;-68
2022/07/30 06:15:09;;;;;;;1.65;0.60;;;;;;;21.51;54.36;100910.38;5033694;28;20032;-68
2022/07/30 06:17:41;;;;;;;2.55;0.73;;;;;;;21.58;53.69;100917.06;5031923;28;20037;-68
2022/07/30 06:20:06;;;;;;;1.17;0.70;;;;;;;21.63;53.75;100921.19;5033648;28;20075;-68
2022/07/30 06:22:32;;;;;;;2.20;0.70;;;;;;;21.73;53.16;100920.66;5033470;28;20037;-67
2022/07/30 06:24:57;;;;;;;1.92;0.80;;;;;;;21.73;53.00;100917.97;5032211;28;20033;-67
2022/07/30 06:27:24;;;;;;;3.53;1.00;;;;;;;21.81;52.92;100923.72;5032417;28;20102;-68
2022/07/30 06:29:50;;;;;;;3.65;0.85;;;;;;;22.01;52.54;100917.16;5033510;28;20488;-68
2022/07/30 06:32:16;;;;;;;1.40;0.60;;;;;;;22.19;51.99;100924.13;5015667;28;20116;-67
2022/07/30 06:34:41;;;;;;;2.20;1.13;;;;;;;22.05;52.08;100926.72;5033481;28;20029;-68
2022/07/30 06:37:06;;;;;;;1.60;0.65;;;;;;;22.09;52.35;100922.91;5033345;28;20512;-66
2022/07/30 06:39:32;;;;;;;2.22;0.80;;;;;;;22.24;51.72;100918.47;5033440;28;20033;-68
2022/07/30 06:42:15;;;;;;;1.55;0.68;;;;;;;22.52;51.40;100921.16;5015710;28;20025;-67
2022/07/30 06:44:40;;;;;;;1.48;0.65;;;;;;;22.69;50.87;100929.94;5033508;28;20046;-67
2022/07/30 06:47:05;;;;;;;1.45;0.73;;;;;;;22.47;50.90;100922.41;5033345;28;20041;-67
2022/07/30 06:49:31;;;;;;;2.30;0.95;;;;;;;22.65;51.10;100926.59;5032316;28;20040;-67
2022/07/30 06:51:57;;;;;;;2.22;0.68;;;;;;;22.91;50.47;100924.09;5033341;28;20036;-68
2022/07/30 06:54:22;;;;;;;1.50;0.68;;;;;;;23.00;49.66;100926.19;5032153;28;20462;-68
2022/07/30 06:56:48;;;;;;;2.97;0.80;;;;;;;23.17;49.40;100923.25;5033521;28;20416;-68
2022/07/30 06:59:13;;;;;;;1.45;0.80;;;;;;;23.26;48.88;100925.34;5033058;28;20034;-68
2022/07/30 07:01:39;;;;;;;1.67;0.70;;;;;;;23.49;48.64;100925.63;5033105;28;20021;-68
2022/07/30 07:04:04;;;;;;;1.80;0.70;;;;;;;23.71;48.10;100923.25;5036532;28;20037;-69
2022/07/30 07:06:29;;;;;;;1.73;0.57;;;;;;;23.84;47.81;100923.25;5037189;28;20057;-68
2022/07/30 07:08:55;;;;;;;1.95;0.70;;;;;;;23.99;47.46;100922.22;5035803;28;20120;-68
2022/07/30 07:11:20;;;;;;;1.48;0.60;;;;;;;24.16;46.99;100918.34;5037034;28;20082;-68
2022/07/30 07:13:46;;;;;;;2.17;0.90;;;;;;;24.26;46.57;100910.53;5035508;28;20025;-68
2022/07/30 07:16:11;;;;;;;3.05;0.88;;;;;;;24.33;46.07;100909.94;5018928;28;20041;-68
2022/07/30 07:18:36;;;;;;;2.97;0.70;;;;;;;24.49;46.02;100904.38;5037001;28;20029;-69
2022/07/30 07:21:02;;;;;;;3.67;0.75;;;;;;;24.63;45.58;100902.56;5035831;28;20036;-68
2022/07/30 07:23:27;;;;;;;2.65;0.80;;;;;;;24.77;45.39;100903.25;5019082;28;20389;-68
2022/07/30 07:25:54;;;;;;;1.08;0.68;;;;;;;24.89;45.32;100893.44;5036559;28;20041;-68
2022/07/30 07:28:19;;;;;;;2.85;1.30;;;;;;;25.03;45.09;100900.50;5036469;28;20480;-68
2022/07/30 07:30:45;;;;;;;3.58;1.00;;;;;;;25.08;44.81;100891.09;5018793;28;20030;-68
2022/07/30 07:33:11;;;;;;;3.10;0.70;;;;;;;25.06;44.40;100886.81;5018830;28;20033;-66
2022/07/30 07:35:37;;;;;;;3.00;0.80;;;;;;;25.15;44.24;100888.84;5034975;28;20050;-66
2022/07/30 07:38:02;;;;;;;1.67;0.52;;;;;;;25.21;43.92;100890.22;5018974;28;20444;-67
2022/07/30 07:40:28;;;;;;;2.78;0.82;;;;;;;25.43;43.71;100892.16;5036446;28;20076;-66
2022/07/30 07:42:53;;;;;;;1.73;0.60;;;;;;;25.48;43.27;100881.91;5036398;28;20040;-66
2022/07/30 07:45:19;;;;;;;4.10;0.90;;;;;;;25.65;43.28;100878.75;5034946;28;20033;-67
2022/07/30 07:47:47;;;;;;;2.42;1.05;;;;;;;25.78;43.18;100881.41;5036296;28;20037;-66
2022/07/30 07:50:15;;;;;;;3.42;1.45;;;;;;;25.77;43.21;100874.25;5036314;28;20029;-67
2022/07/30 07:52:41;;;;;;;5.28;2.20;;;;;;;25.92;43.62;100870.41;5036524;28;20072;-66
2022/07/30 07:55:06;;;;;;;3.50;0.93;;;;;;;26.12;42.88;100863.47;5035036;28;20033;-66
2022/07/30 07:57:39;;;;;;;2.08;0.77;;;;;;;26.01;40.67;100868.84;5036024;28;20469;-66
2022/07/30 08:00:06;;;;;;;9.63;1.58;;;;;;;25.82;41.82;100865.91;5034764;28;20033;-67
2022/07/30 08:02:32;;;;;;;2.67;0.82;;;;;;;25.72;41.78;100853.09;5036016;28;20112;-66
2022/07/30 08:04:57;;;;;;;5.47;1.15;;;;;;;25.86;42.18;100856.59;5001913;28;20508;-66
2022/07/30 08:07:23;;;;;;;2.38;0.60;;;;;;;25.76;41.70;100859.97;5034816;28;20030;-66
2022/07/30 08:09:48;;;;;;;2.97;1.10;;;;;;;25.78;41.53;100858.06;5035986;28;20472;-66
2022/07/30 08:12:13;;;;;;;0.90;0.55;;;;;;;25.85;41.32;100858.41;5035708;28;20041;-68
2022/07/30 08:14:39;;;;;;;2.30;0.60;;;;;;;25.94;41.33;100862.25;5035530;28;20028;-68
2022/07/30 08:17:08;;;;;;;1.95;0.60;;;;;;;25.87;40.66;100850.22;5035711;28;20025;-69
2022/07/30 08:19:33;;;;;;;3.92;0.90;;;;;;;26.18;41.42;100843.28;5034457;28;20029;-68
2022/07/30 08:21:59;;;;;;;2.25;0.80;;;;;;;26.36;40.25;100855.25;5035943;28;20028;-68
2022/07/30 08:24:24;;;;;;;1.80;0.60;;;;;;;26.60;40.39;100847.06;5035610;28;20029;-69
2022/07/30 08:26:50;;;;;;;4.35;0.60;;;;;;;26.78;40.90;100840.16;5035715;28;20029;-68
2022/07/30 08:29:16;;;;;;;2.58;0.55;;;;;;;26.93;38.74;100847.97;5035505;28;20033;-68
2022/07/30 08:31:44;;;;;;;1.00;0.40;;;;;;;26.62;37.25;100842.41;5034399;28;20117;-62
2022/07/30 08:34:10;;;;;;;2.88;0.70;;;;;;;26.84;39.10;100846.03;5035555;28;20104;-57
2022/07/30 08:36:41;;;;;;;2.42;0.50;;;;;;;26.69;38.39;100851.72;5035144;28;20132;-65
2022/07/30 08:39:07;;;;;;;1.42;0.50;;;;;;;26.77;37.62;100851.06;5034233;28;20025;-66
2022/07/30 08:41:35;;;;;;;0.80;0.40;;;;;;;26.71;37.68;100838.97;5035666;28;20087;-65
2022/07/30 08:44:02;;;;;;;0.80;0.63;;;;;;;26.74;38.52;100843.25;5035515;28;20025;-65
2022/07/30 08:46:30;;;;;;;1.10;0.50;;;;;;;26.85;38.50;100850.44;5033994;28;20052;-65
2022/07/30 08:48:57;;;;;;;1.27;0.50;;;;;;;27.04;37.88;100842.53;5035308;28;20021;-65
2022/07/30 08:51:23;;;;;;;3.97;0.50;;;;;;;27.02;37.03;100841.81;5017416;28;20060;-65
2022/07/30 08:53:49;;;;;;;3.47;0.57;;;;;;;26.80;36.13;100848.13;5034973;28;20104;-67
2022/07/30 08:56:15;;;;;;;1.30;0.50;;;;;;;26.82;36.39;100838.09;5033657;28;20029;-65
2022/07/30 08:58:40;;;;;;;0.82;0.40;;;;;;;26.79;37.41;100841.03;5033687;28;20033;-66
2022/07/30 09:01:06;;;;;;;2.53;0.50;;;;;;;26.97;38.73;100847.59;5033683;28;20017;-66
2022/07/30 09:03:32;;;;;;;1.98;0.50;;;;;;;27.06;39.37;100840.56;5034934;28;20056;-64
2022/07/30 09:05:59;;;;;;;2.03;0.40;;;;;;;26.99;37.02;100840.22;5033634;28;20034;-65
2022/07/30 09:08:24;;;;;;;9.48;0.80;;;;;;;27.10;37.82;100831.28;5033718;28;20032;-66
2022/07/30 09:10:49;;;;;;;3.78;0.60;;;;;;;27.24;39.46;100827.41;5034647;28;20021;-66
2022/07/30 09:13:36;;;;;;;1.38;0.40;;;;;;;27.27;39.27;100838.78;5033418;28;20053;-66
2022/07/30 09:16:04;;;;;;;2.60;0.60;;;;;;;27.37;37.01;100832.59;5033339;28;20025;-67
2022/07/30 09:18:35;;;;;;;1.50;0.45;;;;;;;27.54;35.30;100834.75;5033303;28;20026;-67
2022/07/30 09:21:14;;;;;;;2.20;0.47;;;;;;;27.65;38.00;100831.97;5033149;28;20469;-67
2022/07/30 09:23:52;;;;;;;3.97;0.93;;;;;;;27.86;38.07;100833.84;5033190;28;20025;-68
2022/07/30 09:26:18;;;;;;;2.75;0.65;;;;;;;27.92;37.45;100822.47;5032549;28;20120;-68
2022/07/30 09:28:43;;;;;;;1.67;0.43;;;;;;;27.94;36.74;100823.22;5034568;28;20076;-68
2022/07/30 09:31:09;;;;;;;2.47;0.60;;;;;;;27.73;35.68;100824.09;5034357;28;20454;-68
2022/07/30 09:33:39;;;;;;;2.45;0.68;;;;;;;27.44;35.00;100823.00;5033236;28;20030;-68
2022/07/30 09:36:08;;;;;;;2.65;1.00;;;;;;;27.64;35.67;100819.44;5016329;28;20046;-68
2022/07/30 09:38:47;;;;;;;1.70;0.43;;;;;;;27.63;31.91;100817.75;5032987;28;20438;-68
2022/07/30 09:41:14;;;;;;;1.00;0.43;;;;;;;27.67;35.24;100819.19;5034248;28;20518;-68
2022/07/30 09:43:44;;;;;;;0.60;0.40;;;;;;;27.32;34.13;100813.25;5034115;28;20053;-68
2022/07/30 09:46:10;;;;;;;1.10;0.40;;;;;;;27.19;33.87;100808.06;5032712;28;20105;-68
2022/07/30 09:48:36;;;;;;;1.05;0.50;;;;;;;27.36;35.64;100814.72;5033998;28;20148;-68
2022/07/30 09:51:01;;;;;;;0.73;0.40;;;;;;;27.54;35.41;100810.44;5032994;28;20120;-68
2022/07/30 09:53:27;;;;;;;3.63;1.00;;;;;;;27.72;37.21;100811.53;5033011;28;20104;-68
2022/07/30 09:55:52;;;;;;;2.55;0.70;;;;;;;27.86;35.70;100804.97;5016103;28;20052;-68
2022/07/30 09:58:18;;;;;;;1.45;0.50;;;;;;;27.90;34.43;100813.66;5034239;28;20033;-68
2022/07/30 10:00:44;;;;;;;5.03;0.57;;;;;;;28.07;35.23;100802.22;5016059;28;20029;-68
2022/07/30 10:03:18;;;;;;;1.02;0.32;;;;;;;28.10;31.40;100796.56;5033885;28;20473;-68
2022/07/30 10:05:58;;;;;;;0.95;0.40;;;;;;;28.09;29.84;100800.25;5033712;28;20022;-68
2022/07/30 10:08:55;;;;;;;1.08;0.50;;;;;;;28.30;33.33;100804.75;5033971;28;20072;-67
2022/07/30 10:11:23;;;;;;;1.90;0.47;;;;;;;28.12;33.85;100812.63;5021708;28;20052;-68
2022/07/30 10:13:54;;;;;;;3.53;0.55;;;;;;;28.08;32.21;100805.78;5032415;28;20030;-69
2022/07/30 10:16:20;;;;;;;4.77;0.43;;;;;;;28.03;34.11;100799.94;5032466;28;20053;-68
2022/07/30 10:18:46;;;;;;;3.88;2.33;;;;;;;28.00;33.52;100806.44;5033560;28;20099;-67
2022/07/30 10:21:12;;;;;;;2.28;0.80;;;;;;;27.84;34.12;100804.25;5015938;28;20397;-69
2022/07/30 10:23:39;;;;;;;0.85;0.55;;;;;;;27.79;33.27;100811.91;5033436;28;20022;-69
2022/07/30 10:26:07;;;;;;;1.58;0.50;;;;;;;27.47;32.67;100811.97;5032158;28;20025;-68
2022/07/30 10:28:33;;;;;;;2.63;0.68;;;;;;;27.31;32.13;100808.88;5033631;28;20190;-69
2022/07/30 10:30:59;;;;;;;0.70;0.28;;;;;;;27.45;32.42;100803.16;5033391;28;20440;-68
2022/07/30 10:33:29;;;;;;;2.10;0.95;;;;;;;27.38;33.42;100802.81;5033317;28;20104;-67
2022/07/30 10:35:56;;;;;;;2.33;0.70;;;;;;;27.38;33.16;100801.97;5032044;28;20045;-68
2022/07/30 10:38:29;;;;;;;2.78;0.98;;;;;;;27.48;31.72;100802.88;5036296;28;20033;-68
2022/07/30 10:41:07;;;;;;;1.27;0.38;;;;;;;27.70;30.99;100804.59;5037765;28;20029;-68
2022/07/30 10:43:55;;;;;;;2.70;0.50;;;;;;;27.91;34.91;100799.19;5036281;28;20052;-67
2022/07/30 10:46:20;;;;;;;0.80;0.32;;;;;;;27.96;33.20;100802.31;5037276;28;20108;-68
2022/07/30 10:48:46;;;;;;;1.60;0.40;;;;;;;27.97;32.70;100804.06;5037550;28;20104;-68
2022/07/30 10:51:11;;;;;;;1.00;0.40;;;;;;;27.86;31.53;100807.69;5037562;28;20025;-68
2022/07/30 10:53:48;;;;;;;1.02;0.25;;;;;;;27.72;31.69;100800.75;5037316;28;20133;-68
2022/07/30 10:56:17;;;;;;;1.48;0.43;;;;;;;27.97;30.28;100793.25;5037632;28;20377;-68
2022/07/30 10:59:05;;;;;;;1.42;0.20;;;;;;;28.27;32.08;100803.16;5035781;28;20037;-68
2022/07/30 11:01:48;;;;;;;1.17;0.50;;;;;;;28.41;29.23;100793.84;5037145;28;20095;-68
2022/07/30 11:04:25;;;;;;;1.08;0.30;;;;;;;28.01;29.16;100794.69;5037107;28;20026;-68
2022/07/30 11:06:51;;;;;;;1.52;0.40;;;;;;;28.19;31.14;100797.59;5036068;28;20091;-68
2022/07/30 11:09:38;;;;;;;0.88;0.30;;;;;;;28.18;28.35;100803.97;5035723;28;20029;-69
2022/07/30 11:12:08;;;;;;;1.48;0.50;;;;;;;28.29;29.26;100808.41;5037105;28;20034;-68
2022/07/30 11:14:45;;;;;;;1.38;0.40;;;;;;;28.44;28.53;100794.41;5036977;28;20035;-69
2022/07/30 11:17:18;;;;;;;0.93;0.30;;;;;;;28.54;29.64;100791.75;5035350;28;20021;-68
2022/07/30 11:20:03;;;;;;;0.98;0.38;;;;;;;28.39;28.15;100791.28;5035771;28;20087;-69
2022/07/30 11:22:54;;;;;;;0.47;0.30;;;;;;;28.53;29.91;100783.75;5036770;28;20049;-69
2022/07/30 11:25:28;;;;;;;1.65;0.40;;;;;;;28.73;30.10;100778.25;5036562;28;20034;-69
2022/07/30 11:27:53;;;;;;;4.15;0.70;;;;;;;28.88;29.94;100785.94;5036653;28;20045;-69
2022/07/30 11:30:19;;;;;;;1.15;0.40;;;;;;;28.71;30.21;100774.81;5036784;28;20385;-69